Sadiqabad Weather



Sadiqabad's Current Weather

Temprature 20.52o scattered clouds

scattered clouds

Rain: 0 %

Min Temprature20.52o
Max Temprature20.52o
Humidity39
Wind Speed4.69 m/h
Sun Rise07:09:46
Sun Set17:54:05
Current Time: 27-Jan-2020 18:24:53
Lat/Lon: 28.31, 70.13




Sadiqabad's Geo Location



Sadiqabad's Weather Forecast

Time Overall Temp Min Temp Max Temp Humidity Wind Speed Rain
27-Jan-2020 (Mon)
20:00:00 few clouds 17.240 17.240 17.240 47 6.47 m/h 0 %
23:00:00 few clouds 14.870 14.870 14.870 57 6.03 m/h 0 %
28-Jan-2020 (Tue)
02:00:00 few clouds 12.970 12.970 12.970 70 4.61 m/h 0 %
05:00:00 scattered clouds 11.770 11.770 11.770 72 3.95 m/h 0 %
08:00:00 broken clouds 12.400 12.400 12.400 69 3.13 m/h 0 %
11:00:00 scattered clouds 18.970 18.970 18.970 37 5.27 m/h 0 %
14:00:00 clear sky 21.130 21.130 21.130 29 3.73 m/h 0 %
17:00:00 clear sky 20.030 20.030 20.030 32 2.17 m/h 0 %
20:00:00 clear sky 15.920 15.920 15.920 37 3.69 m/h 0 %
23:00:00 clear sky 14.850 14.850 14.850 40 3.51 m/h 0 %
29-Jan-2020 (Wed)
02:00:00 clear sky 13.300 13.300 13.300 46 2.66 m/h 0 %
05:00:00 clear sky 11.010 11.010 11.010 55 1.19 m/h 0 %
08:00:00 clear sky 12.710 12.710 12.710 52 0.53 m/h 0 %
11:00:00 clear sky 20.380 20.380 20.380 25 1.63 m/h 0 %
14:00:00 clear sky 22.680 22.680 22.680 21 3.57 m/h 0 %
17:00:00 clear sky 21.750 21.750 21.750 23 3.2 m/h 0 %
20:00:00 clear sky 15.740 15.740 15.740 34 1.54 m/h 0 %
23:00:00 clear sky 13.520 13.520 13.520 39 1.04 m/h 0 %
30-Jan-2020 (Thu)
02:00:00 clear sky 13.790 13.790 13.790 37 2.51 m/h 0 %
05:00:00 clear sky 11.030 11.030 11.030 55 4.43 m/h 0 %
08:00:00 scattered clouds 11.200 11.200 11.200 63 4.14 m/h 0 %
11:00:00 few clouds 18.970 18.970 18.970 35 3.43 m/h 0 %
14:00:00 clear sky 22.490 22.490 22.490 23 0.89 m/h 0 %
17:00:00 clear sky 22.140 22.140 22.140 21 0.44 m/h 0 %
20:00:00 clear sky 15.570 15.570 15.570 37 2.81 m/h 0 %
23:00:00 clear sky 14.690 14.690 14.690 36 3.43 m/h 0 %
31-Jan-2020 (Fri)
02:00:00 clear sky 13.160 13.160 13.160 39 2.25 m/h 0 %
05:00:00 clear sky 12.280 12.280 12.280 44 3.14 m/h 0 %
08:00:00 clear sky 12.520 12.520 12.520 46 3.43 m/h 0 %
11:00:00 clear sky 19.970 19.970 19.970 26 2.38 m/h 0 %
14:00:00 clear sky 22.910 22.910 22.910 20 2.09 m/h 0 %
17:00:00 clear sky 21.870 21.870 21.870 21 3.95 m/h 0 %
20:00:00 clear sky 15.740 15.740 15.740 31 1.33 m/h 0 %
23:00:00 clear sky 15.420 15.420 15.420 32 2.22 m/h 0 %
01-Feb-2020 (Sat)
02:00:00 clear sky 14.540 14.540 14.540 29 3.26 m/h 0 %
05:00:00 clear sky 12.460 12.460 12.460 42 4.59 m/h 0 %
08:00:00 clear sky 12.310 12.310 12.310 44 4.36 m/h 0 %
11:00:00 clear sky 20.460 20.460 20.460 25 3.95 m/h 0 %
14:00:00 clear sky 23.340 23.340 23.340 18 1.7 m/h 0 %
17:00:00 clear sky 23.170 23.170 23.170 18 1.41 m/h 0 %


Sadiqabad's Tourist Spots

Historical Places in Sadiqabad

Famous Cities (61)